Time;durP1;ratioP1;P1;durP2;ratioP2;P2;SDS_P1;SDS_P2;PMS_P1;PMS_P2;Temp;Humidity;BMP_temperature;BMP_pressure;BME280_temperature;BME280_humidity;BME280_pressure;Samples;Min_cycle;Max_cycle;Signal;HPM_P1;HPM_P2
2022/07/26 00:00:05;;;;;;;3.30;1.33;;;;;;;;;;8428635;28;20020;-72
2022/07/26 00:04:06;;;;;;;1.48;1.25;;;;;;;;;;8429456;28;20273;-72
2022/07/26 00:08:10;;;;;;;2.92;1.45;;;;;;;;;;8431233;28;20048;-71
2022/07/26 00:12:10;;;;;;;2.58;1.27;;;;;;;;;;8427867;28;20035;-72
2022/07/26 00:16:10;;;;;;;1.37;1.20;;;;;;;;;;8429225;28;20116;-72
2022/07/26 00:20:10;;;;;;;2.33;1.20;;;;;;;;;;8427922;28;20073;-72
2022/07/26 00:24:11;;;;;;;3.60;1.20;;;;;;;;;;8430204;28;20023;-71
2022/07/26 00:28:11;;;;;;;2.33;1.20;;;;;;;;;;8429070;28;20055;-72
2022/07/26 00:32:11;;;;;;;3.60;1.15;;;;;;;;;;8408091;28;20052;-72
2022/07/26 00:36:12;;;;;;;2.67;1.10;;;;;;;;;;8410336;28;20115;-71
2022/07/26 00:40:12;;;;;;;2.58;1.40;;;;;;;;;;8429382;28;20092;-71
2022/07/26 00:44:12;;;;;;;5.20;1.30;;;;;;;;;;8427996;28;20477;-72
2022/07/26 00:48:13;;;;;;;3.13;1.37;;;;;;;;;;8428630;28;20062;-72
2022/07/26 00:52:13;;;;;;;2.00;1.20;;;;;;;;;;8429348;27;20035;-71
2022/07/26 00:56:14;;;;;;;3.33;1.20;;;;;;;;;;8399445;28;20020;-72
2022/07/26 01:00:19;;;;;;;4.07;1.40;;;;;;;;;;8426779;28;20077;-72
2022/07/26 01:04:20;;;;;;;2.08;1.33;;;;;;;;;;8428542;28;20020;-71
2022/07/26 01:08:20;;;;;;;1.57;1.20;;;;;;;;;;8429505;28;20023;-72
2022/07/26 01:12:20;;;;;;;2.17;1.33;;;;;;;;;;8427546;28;20284;-72
2022/07/26 01:16:20;;;;;;;1.85;1.50;;;;;;;;;;8427469;27;20032;-72
2022/07/26 01:20:21;;;;;;;2.15;1.27;;;;;;;;;;8423708;27;20103;-72
2022/07/26 01:24:21;;;;;;;1.33;1.20;;;;;;;;;;8425836;28;20064;-71
2022/07/26 01:28:21;;;;;;;1.30;1.20;;;;;;;;;;8424177;27;20050;-72
2022/07/26 01:32:21;;;;;;;2.30;1.30;;;;;;;;;;8425617;28;20492;-72
2022/07/26 01:36:22;;;;;;;2.33;1.55;;;;;;;;;;8427523;28;20444;-72
2022/07/26 01:40:22;;;;;;;4.33;1.43;;;;;;;;;;8426754;28;20012;-72
2022/07/26 01:44:22;;;;;;;6.07;1.50;;;;;;;;;;8426507;28;20273;-72
2022/07/26 01:48:23;;;;;;;3.67;1.40;;;;;;;;;;8426610;28;20047;-72
2022/07/26 01:52:23;;;;;;;2.28;1.13;;;;;;;;;;8426359;27;20962;-71
2022/07/26 01:56:23;;;;;;;4.60;1.60;;;;;;;;;;8426953;28;20044;-72
2022/07/26 02:00:23;;;;;;;3.80;1.20;;;;;;;;;;8424842;28;20092;-72
2022/07/26 02:08:42;;;;;;;2.13;1.48;;;;;;;;;;8425687;28;20038;-72
2022/07/26 02:12:42;;;;;;;3.03;1.30;;;;;;;;;;8425102;28;20114;-72
2022/07/26 02:16:43;;;;;;;2.33;1.40;;;;;;;;;;8425936;28;20039;-72
2022/07/26 02:20:43;;;;;;;2.85;1.40;;;;;;;;;;8425076;28;20084;-72
2022/07/26 02:24:43;;;;;;;5.03;1.55;;;;;;;;;;8426388;28;20038;-71
2022/07/26 02:28:43;;;;;;;1.88;1.20;;;;;;;;;;8425441;28;20141;-72
2022/07/26 02:32:43;;;;;;;4.80;1.30;;;;;;;;;;8424534;28;20058;-72
2022/07/26 02:36:44;;;;;;;3.33;1.40;;;;;;;;;;8426049;28;20551;-72
2022/07/26 02:40:44;;;;;;;4.25;1.48;;;;;;;;;;8424745;28;20038;-71
2022/07/26 02:44:44;;;;;;;3.00;1.30;;;;;;;;;;8426115;28;20149;-72
2022/07/26 02:48:45;;;;;;;2.97;1.23;;;;;;;;;;8424232;28;20039;-72
2022/07/26 02:52:46;;;;;;;2.65;1.38;;;;;;;;;;8426796;28;20047;-71
2022/07/26 02:56:47;;;;;;;3.03;1.25;;;;;;;;;;8424956;28;20382;-72
2022/07/26 03:00:47;;;;;;;2.67;1.20;;;;;;;;;;8405010;28;20040;-72
2022/07/26 03:04:47;;;;;;;2.83;1.30;;;;;;;;;;8425663;28;20028;-71
2022/07/26 03:08:48;;;;;;;4.57;1.48;;;;;;;;;;8423145;28;20091;-71
2022/07/26 03:12:48;;;;;;;2.47;1.30;;;;;;;;;;8425534;28;20115;-72
2022/07/26 03:16:48;;;;;;;4.83;1.43;;;;;;;;;;8424791;28;20078;-72
2022/07/26 03:20:49;;;;;;;2.20;1.10;;;;;;;;;;8424676;28;20142;-72
2022/07/26 03:24:49;;;;;;;7.13;1.48;;;;;;;;;;8424159;28;20039;-71
2022/07/26 03:28:49;;;;;;;6.65;1.38;;;;;;;;;;8425763;28;20077;-72
2022/07/26 03:32:49;;;;;;;2.58;1.38;;;;;;;;;;8421506;28;20039;-72
2022/07/26 03:36:50;;;;;;;4.68;1.30;;;;;;;;;;8425894;28;20102;-72
2022/07/26 03:40:50;;;;;;;5.20;1.27;;;;;;;;;;8423271;28;20484;-71
2022/07/26 03:44:50;;;;;;;3.60;1.40;;;;;;;;;;8424216;28;20277;-71
2022/07/26 03:48:50;;;;;;;6.13;1.67;;;;;;;;;;8423691;28;20036;-72
2022/07/26 03:52:50;;;;;;;5.38;1.40;;;;;;;;;;8428217;28;20194;-72
2022/07/26 03:56:51;;;;;;;3.97;1.20;;;;;;;;;;8430914;28;20034;-72
2022/07/26 04:00:52;;;;;;;4.07;1.50;;;;;;;;;;8429336;27;20158;-72
2022/07/26 04:04:52;;;;;;;5.13;1.40;;;;;;;;;;8402295;28;20979;-71
2022/07/26 04:08:52;;;;;;;9.85;2.10;;;;;;;;;;8429986;27;20058;-71
2022/07/26 04:12:53;;;;;;;2.30;1.30;;;;;;;;;;8429811;28;20043;-71
2022/07/26 04:16:53;;;;;;;6.47;1.40;;;;;;;;;;8408536;28;20038;-72
2022/07/26 04:20:53;;;;;;;3.65;1.30;;;;;;;;;;8430161;28;20027;-72
2022/07/26 04:24:53;;;;;;;7.82;1.55;;;;;;;;;;8427327;28;20027;-71
2022/07/26 04:28:54;;;;;;;7.93;1.63;;;;;;;;;;8409271;28;20043;-72
2022/07/26 04:32:54;;;;;;;5.63;1.30;;;;;;;;;;8427691;28;20036;-72
2022/07/26 04:36:54;;;;;;;3.93;1.27;;;;;;;;;;8408992;28;20023;-73
2022/07/26 04:40:55;;;;;;;5.32;1.50;;;;;;;;;;8428662;27;20291;-72
2022/07/26 04:44:55;;;;;;;4.43;1.27;;;;;;;;;;8429119;27;20851;-72
2022/07/26 04:48:55;;;;;;;7.82;1.38;;;;;;;;;;8427692;28;20069;-72
2022/07/26 04:52:55;;;;;;;6.83;1.40;;;;;;;;;;8428717;28;20027;-72
2022/07/26 04:56:56;;;;;;;4.53;1.30;;;;;;;;;;8428900;27;20030;-72
2022/07/26 05:00:58;;;;;;;5.80;1.70;;;;;;;;;;8427734;28;20100;-72
2022/07/26 05:04:58;;;;;;;8.07;1.58;;;;;;;;;;8424171;28;20317;-72
2022/07/26 05:08:58;;;;;;;8.63;1.45;;;;;;;;;;8426552;28;20290;-72
2022/07/26 05:12:58;;;;;;;8.02;1.42;;;;;;;;;;8426618;28;20088;-72
2022/07/26 05:16:58;;;;;;;4.20;1.17;;;;;;;;;;8406480;28;20031;-72
2022/07/26 05:20:58;;;;;;;6.30;1.42;;;;;;;;;;8405465;28;20027;-71
2022/07/26 05:24:59;;;;;;;3.88;1.27;;;;;;;;;;8425960;28;20439;-69
2022/07/26 05:28:59;;;;;;;6.40;1.30;;;;;;;;;;8425292;28;20115;-69
2022/07/26 05:32:59;;;;;;;4.95;1.33;;;;;;;;;;8402407;28;20039;-69
2022/07/26 05:36:59;;;;;;;5.80;1.40;;;;;;;;;;8425707;28;20015;-69
2022/07/26 05:40:59;;;;;;;4.45;1.38;;;;;;;;;;8423763;28;20645;-70
2022/07/26 05:45:00;;;;;;;8.77;1.30;;;;;;;;;;8424793;28;20088;-69
2022/07/26 05:49:00;;;;;;;3.75;1.15;;;;;;;;;;8422325;27;20041;-70
2022/07/26 05:53:00;;;;;;;2.13;1.08;;;;;;;;;;8423189;28;20042;-69
2022/07/26 05:57:01;;;;;;;4.75;1.00;;;;;;;;;;8423515;28;20020;-69
2022/07/26 06:01:01;;;;;;;2.72;1.00;;;;;;;;;;8423129;28;20126;-69
2022/07/26 06:05:01;;;;;;;6.55;1.27;;;;;;;;;;8422789;28;20023;-69
2022/07/26 06:09:02;;;;;;;1.83;1.00;;;;;;;;;;8424311;28;20027;-69
2022/07/26 06:13:02;;;;;;;2.75;1.10;;;;;;;;;;8422585;28;20296;-69
2022/07/26 06:17:05;;;;;;;2.67;1.08;;;;;;;;;;8420594;28;20023;-69
2022/07/26 06:21:07;;;;;;;1.80;1.08;;;;;;;;;;8424035;28;20019;-69
2022/07/26 06:25:07;;;;;;;2.85;1.02;;;;;;;;;;8424503;27;20035;-69
2022/07/26 06:29:07;;;;;;;1.80;0.90;;;;;;;;;;8422954;27;20027;-70
2022/07/26 06:33:08;;;;;;;2.45;0.80;;;;;;;;;;8421504;28;20044;-69
2022/07/26 06:37:08;;;;;;;3.08;1.15;;;;;;;;;;8422652;28;20118;-69
2022/07/26 06:41:08;;;;;;;4.33;1.10;;;;;;;;;;8424193;27;20579;-70
2022/07/26 06:45:09;;;;;;;4.88;1.00;;;;;;;;;;8422559;28;20061;-70
2022/07/26 06:49:09;;;;;;;2.13;1.00;;;;;;;;;;8399738;28;21039;-69
2022/07/26 06:53:09;;;;;;;3.13;0.90;;;;;;;;;;8421847;28;20023;-70
2022/07/26 06:57:09;;;;;;;2.42;1.10;;;;;;;;;;8422804;28;20030;-70
2022/07/26 07:01:10;;;;;;;3.92;1.00;;;;;;;;;;8401039;28;20131;-69
2022/07/26 07:05:10;;;;;;;4.18;0.90;;;;;;;;;;8421570;28;20034;-71
2022/07/26 07:09:11;;;;;;;1.00;0.90;;;;;;;;;;8421012;28;20035;-71
2022/07/26 07:13:11;;;;;;;1.45;0.90;;;;;;;;;;8419538;28;20024;-71
2022/07/26 07:17:11;;;;;;;2.53;0.93;;;;;;;;;;8416871;28;20028;-70
2022/07/26 07:21:11;;;;;;;4.00;0.98;;;;;;;;;;8418056;28;20066;-71
2022/07/26 07:25:12;;;;;;;7.35;1.00;;;;;;;;;;8419565;28;20019;-71
2022/07/26 07:29:13;;;;;;;2.22;0.95;;;;;;;;;;8426100;28;20150;-71
2022/07/26 07:33:13;;;;;;;2.13;0.98;;;;;;;;;;8425614;27;20031;-71
2022/07/26 07:37:15;;;;;;;3.13;0.90;;;;;;;;;;8427298;27;20842;-71
2022/07/26 07:41:15;;;;;;;2.25;0.80;;;;;;;;;;8426569;28;20853;-71
2022/07/26 07:45:15;;;;;;;3.77;1.00;;;;;;;;;;8424217;28;20620;-70
2022/07/26 07:49:15;;;;;;;1.00;0.80;;;;;;;;;;8429199;28;20019;-70
2022/07/26 07:53:15;;;;;;;1.63;0.80;;;;;;;;;;8425830;28;20035;-70
2022/07/26 07:57:16;;;;;;;1.63;0.77;;;;;;;;;;8427754;28;20022;-70
2022/07/26 08:01:16;;;;;;;2.08;0.90;;;;;;;;;;8425628;28;20566;-70
2022/07/26 08:05:16;;;;;;;2.05;0.90;;;;;;;;;;8427176;28;20027;-70
2022/07/26 08:09:16;;;;;;;1.92;0.80;;;;;;;;;;8427177;28;20059;-70
2022/07/26 08:13:17;;;;;;;1.17;0.80;;;;;;;;;;8428259;28;20356;-70
2022/07/26 08:17:17;;;;;;;2.97;0.95;;;;;;;;;;8425323;28;20059;-70
2022/07/26 08:21:17;;;;;;;2.60;0.80;;;;;;;;;;8425579;28;20030;-69
2022/07/26 08:25:17;;;;;;;3.22;0.90;;;;;;;;;;8428458;28;20020;-70
2022/07/26 08:29:18;;;;;;;2.88;0.90;;;;;;;;;;8425601;28;20031;-70
2022/07/26 08:33:18;;;;;;;2.60;0.90;;;;;;;;;;8426028;28;20035;-70
2022/07/26 08:37:18;;;;;;;2.03;0.93;;;;;;;;;;8424191;28;20058;-70
2022/07/26 08:41:18;;;;;;;2.63;0.90;;;;;;;;;;8426689;28;20032;-70
2022/07/26 08:45:22;;;;;;;2.83;0.90;;;;;;;;;;8426638;28;20022;-71
2022/07/26 08:49:22;;;;;;;1.33;0.77;;;;;;;;;;8428069;28;20031;-70
2022/07/26 08:53:22;;;;;;;1.27;0.80;;;;;;;;;;8427027;28;20024;-70
2022/07/26 08:57:22;;;;;;;2.53;0.83;;;;;;;;;;8426328;28;20038;-70
2022/07/26 09:01:23;;;;;;;2.67;0.90;;;;;;;;;;8423874;28;20269;-70
2022/07/26 09:05:27;;;;;;;1.70;0.77;;;;;;;;;;8426524;28;20110;-71
2022/07/26 09:09:28;;;;;;;1.48;0.90;;;;;;;;;;8427334;27;20070;-70
2022/07/26 09:13:47;;;;;;;4.00;1.00;;;;;;;;;;8424394;28;20015;-70
2022/07/26 09:17:48;;;;;;;3.08;0.80;;;;;;;;;;8424277;28;20424;-70
2022/07/26 09:21:49;;;;;;;4.53;0.82;;;;;;;;;;8425658;27;20120;-70
2022/07/26 09:25:49;;;;;;;1.80;0.82;;;;;;;;;;8425835;27;20048;-70
2022/07/26 09:29:53;;;;;;;2.17;0.90;;;;;;;;;;8425213;28;20803;-70
2022/07/26 09:33:53;;;;;;;1.70;0.95;;;;;;;;;;8423921;28;20036;-70
2022/07/26 09:37:54;;;;;;;3.33;1.10;;;;;;;;;;8425425;28;20493;-70
2022/07/26 09:41:54;;;;;;;1.33;0.83;;;;;;;;;;8425555;28;20156;-70
2022/07/26 09:46:04;;;;;;;1.23;0.80;;;;;;;;;;8423648;28;20047;-71
2022/07/26 09:50:10;;;;;;;1.10;0.80;;;;;;;;;;8404753;28;20034;-70
2022/07/26 09:54:11;;;;;;;1.08;0.90;;;;;;;;;;8423201;28;20609;-70
2022/07/26 09:58:12;;;;;;;2.03;0.70;;;;;;;;;;8425019;28;20031;-70
2022/07/26 10:02:13;;;;;;;0.93;0.80;;;;;;;;;;8422368;28;20039;-70
2022/07/26 10:06:13;;;;;;;0.90;0.60;;;;;;;;;;8424250;28;20031;-70
2022/07/26 10:10:17;;;;;;;0.90;0.80;;;;;;;;;;8423638;28;20035;-71
2022/07/26 10:14:37;;;;;;;4.22;0.85;;;;;;;;;;8423054;28;20037;-70
2022/07/26 10:18:37;;;;;;;3.42;0.85;;;;;;;;;;8422833;28;20088;-70
2022/07/26 10:22:45;;;;;;;1.70;0.70;;;;;;;;;;8418179;28;20084;-71
2022/07/26 10:26:45;;;;;;;1.77;0.80;;;;;;;;;;8421165;28;20024;-70
2022/07/26 10:30:45;;;;;;;3.35;0.95;;;;;;;;;;8418623;28;20848;-70
2022/07/26 10:34:45;;;;;;;1.77;0.77;;;;;;;;;;8420808;28;20016;-71
2022/07/26 10:38:56;;;;;;;1.77;0.80;;;;;;;;;;8419398;28;20051;-70
2022/07/26 10:43:13;;;;;;;2.55;0.90;;;;;;;;;;8419654;28;20132;-70
2022/07/26 10:47:14;;;;;;;3.28;1.10;;;;;;;;;;8418324;28;20352;-70
2022/07/26 10:51:23;;;;;;;2.28;1.00;;;;;;;;;;8419979;28;20016;-70
2022/07/26 10:55:23;;;;;;;1.33;0.90;;;;;;;;;;8417458;28;20020;-70
2022/07/26 10:59:31;;;;;;;3.27;0.90;;;;;;;;;;8415332;28;20019;-70
2022/07/26 11:03:38;;;;;;;2.15;0.90;;;;;;;;;;8420954;28;20409;-70
2022/07/26 11:07:52;;;;;;;1.33;0.80;;;;;;;;;;8425219;27;20103;-70
2022/07/26 11:11:52;;;;;;;3.67;1.00;;;;;;;;;;8429506;28;20083;-71
2022/07/26 11:16:00;;;;;;;1.27;0.80;;;;;;;;;;8429976;28;20059;-70
2022/07/26 11:20:00;;;;;;;2.75;0.90;;;;;;;;;;8411593;28;20016;-71
2022/07/26 11:24:01;;;;;;;1.07;0.77;;;;;;;;;;8409481;27;20034;-70
2022/07/26 11:28:04;;;;;;;2.70;0.90;;;;;;;;;;8412239;28;20035;-70
2022/07/26 11:32:05;;;;;;;1.00;0.90;;;;;;;;;;8429208;27;20126;-70
2022/07/26 11:36:06;;;;;;;2.70;0.83;;;;;;;;;;8430506;27;20155;-70
2022/07/26 11:40:06;;;;;;;1.02;0.73;;;;;;;;;;8427279;28;20020;-70
2022/07/26 11:44:13;;;;;;;3.08;0.90;;;;;;;;;;8428437;28;20027;-70
2022/07/26 11:48:13;;;;;;;1.58;0.90;;;;;;;;;;8428395;28;20031;-70
2022/07/26 11:52:14;;;;;;;1.52;0.90;;;;;;;;;;8428333;28;20024;-71
2022/07/26 11:56:21;;;;;;;2.07;1.00;;;;;;;;;;8428140;28;20107;-70
2022/07/26 12:00:22;;;;;;;1.38;0.90;;;;;;;;;;8426213;28;20095;-71
2022/07/26 12:04:27;;;;;;;2.17;0.88;;;;;;;;;;8427813;27;20031;-71
2022/07/26 12:08:37;;;;;;;0.88;0.70;;;;;;;;;;8427467;27;20024;-71
2022/07/26 12:12:37;;;;;;;1.33;0.90;;;;;;;;;;8426550;28;20050;-71
2022/07/26 12:16:41;;;;;;;1.57;1.00;;;;;;;;;;8426832;27;20046;-71
2022/07/26 12:20:54;;;;;;;2.00;0.80;;;;;;;;;;8425497;28;20463;-70
2022/07/26 12:24:56;;;;;;;2.65;1.15;;;;;;;;;;8427889;28;20041;-71
2022/07/26 12:28:57;;;;;;;3.33;1.00;;;;;;;;;;8426946;28;20027;-70
2022/07/26 12:33:00;;;;;;;1.43;0.90;;;;;;;;;;8427704;27;20039;-71
2022/07/26 12:37:19;;;;;;;2.33;0.88;;;;;;;;;;8428039;27;20686;-70
2022/07/26 12:41:35;;;;;;;3.58;0.90;;;;;;;;;;8426663;27;20203;-71
2022/07/26 12:45:37;;;;;;;4.30;1.00;;;;;;;;;;8428065;27;20529;-70
2022/07/26 12:49:38;;;;;;;4.68;1.10;;;;;;;;;;8427564;28;20161;-70
2022/07/26 12:53:38;;;;;;;3.08;1.00;;;;;;;;;;8419932;28;20111;-71
2022/07/26 12:57:39;;;;;;;3.95;1.05;;;;;;;;;;8429939;27;20016;-71
2022/07/26 13:01:39;;;;;;;1.10;0.77;;;;;;;;;;8426364;28;20032;-71
2022/07/26 13:05:39;;;;;;;2.42;0.82;;;;;;;;;;8429056;27;20073;-71
2022/07/26 13:09:40;;;;;;;0.60;0.60;;;;;;;;;;8425690;28;20030;-70
2022/07/26 13:13:40;;;;;;;2.72;0.77;;;;;;;;;;8425896;28;20396;-70
2022/07/26 13:17:40;;;;;;;0.93;0.60;;;;;;;;;;8425407;28;20143;-70
2022/07/26 13:21:41;;;;;;;2.63;0.70;;;;;;;;;;8419959;28;20019;-71
2022/07/26 13:25:41;;;;;;;1.00;0.60;;;;;;;;;;8401670;28;20035;-71
2022/07/26 13:29:41;;;;;;;1.20;0.80;;;;;;;;;;8420658;28;20134;-70
2022/07/26 13:33:42;;;;;;;1.10;0.80;;;;;;;;;;8422079;28;20042;-70
2022/07/26 13:37:43;;;;;;;7.33;0.90;;;;;;;;;;8422791;28;20372;-70
2022/07/26 13:41:43;;;;;;;4.77;0.83;;;;;;;;;;8423080;28;20115;-70
2022/07/26 13:45:44;;;;;;;2.85;0.60;;;;;;;;;;8420907;28;20447;-70
2022/07/26 13:49:44;;;;;;;0.73;0.70;;;;;;;;;;8394299;28;20038;-71
2022/07/26 13:53:44;;;;;;;1.95;0.80;;;;;;;;;;8422366;28;20119;-71
2022/07/26 13:57:45;;;;;;;2.30;0.80;;;;;;;;;;8421004;28;20342;-71
2022/07/26 14:01:45;;;;;;;2.38;0.80;;;;;;;;;;8399746;28;20999;-70
2022/07/26 14:05:45;;;;;;;2.42;0.75;;;;;;;;;;8422391;28;20618;-70
2022/07/26 14:09:46;;;;;;;1.02;0.85;;;;;;;;;;8419982;28;20127;-71
2022/07/26 14:13:46;;;;;;;0.83;0.80;;;;;;;;;;8422081;28;20496;-71
2022/07/26 14:17:46;;;;;;;1.02;0.70;;;;;;;;;;8400536;28;20277;-71
2022/07/26 14:21:48;;;;;;;1.10;0.70;;;;;;;;;;8400758;28;20080;-71
2022/07/26 14:25:49;;;;;;;1.20;0.80;;;;;;;;;;8420777;28;20484;-70
2022/07/26 14:29:49;;;;;;;2.42;0.77;;;;;;;;;;8399493;28;20756;-71
2022/07/26 14:33:50;;;;;;;0.77;0.60;;;;;;;;;;8418337;28;20074;-71
2022/07/26 14:37:51;;;;;;;0.93;0.63;;;;;;;;;;8415855;28;20426;-71
2022/07/26 14:41:51;;;;;;;1.00;0.70;;;;;;;;;;8417974;28;20027;-71
2022/07/26 14:45:51;;;;;;;1.90;0.70;;;;;;;;;;8420598;28;20282;-71
2022/07/26 14:49:51;;;;;;;2.13;0.70;;;;;;;;;;8398275;28;20031;-71
2022/07/26 14:53:51;;;;;;;1.02;0.93;;;;;;;;;;8418418;28;20028;-70
2022/07/26 14:57:52;;;;;;;3.22;0.93;;;;;;;;;;8417932;28;20019;-70
2022/07/26 15:01:52;;;;;;;2.33;0.70;;;;;;;;;;8418726;28;20043;-71
2022/07/26 15:05:52;;;;;;;0.82;0.80;;;;;;;;;;8416810;28;20028;-70
2022/07/26 15:09:53;;;;;;;1.35;0.90;;;;;;;;;;8419207;28;20063;-70
2022/07/26 15:13:53;;;;;;;0.60;0.60;;;;;;;;;;8414979;28;20130;-71
2022/07/26 15:17:53;;;;;;;1.10;0.70;;;;;;;;;;8416601;28;20047;-71
2022/07/26 15:21:54;;;;;;;1.95;1.00;;;;;;;;;;8418588;28;20023;-71
2022/07/26 15:25:54;;;;;;;0.60;0.60;;;;;;;;;;8403224;28;21000;-71
2022/07/26 15:29:54;;;;;;;1.85;0.63;;;;;;;;;;8417667;28;20114;-70
2022/07/26 15:33:55;;;;;;;0.70;0.70;;;;;;;;;;8418688;28;20749;-70
2022/07/26 15:37:56;;;;;;;2.25;0.80;;;;;;;;;;8418991;28;20016;-71
2022/07/26 15:41:58;;;;;;;3.07;0.70;;;;;;;;;;8415674;28;20032;-71
2022/07/26 15:45:58;;;;;;;;;;;;;;;;;;8419587;28;20089;-71
2022/07/26 15:49:58;;;;;;;2.08;0.63;;;;;;;;;;8425153;28;20291;-71
2022/07/26 15:53:59;;;;;;;2.60;0.70;;;;;;;;;;8422642;28;20474;-71
2022/07/26 15:57:59;;;;;;;2.23;0.80;;;;;;;;;;8424115;28;20404;-71
2022/07/26 16:01:59;;;;;;;3.60;0.90;;;;;;;;;;8400887;28;20039;-71
2022/07/26 16:05:59;;;;;;;0.82;0.80;;;;;;;;;;8418772;28;20023;-70
2022/07/26 16:10:00;;;;;;;3.60;0.70;;;;;;;;;;8403539;28;20027;-70
2022/07/26 16:14:00;;;;;;;2.72;0.77;;;;;;;;;;8404673;28;20031;-70
2022/07/26 16:18:00;;;;;;;1.35;0.70;;;;;;;;;;8421809;27;20092;-70
2022/07/26 16:22:02;;;;;;;0.95;0.70;;;;;;;;;;8422687;27;20037;-70
2022/07/26 16:26:02;;;;;;;0.73;0.70;;;;;;;;;;8422605;27;20027;-71
2022/07/26 16:30:03;;;;;;;3.60;0.80;;;;;;;;;;8423288;28;20062;-71
2022/07/26 16:34:03;;;;;;;4.75;0.70;;;;;;;;;;8423073;28;20023;-71
2022/07/26 16:38:03;;;;;;;1.13;0.73;;;;;;;;;;8423897;27;20023;-71
2022/07/26 16:42:05;;;;;;;17.80;1.10;;;;;;;;;;8422871;28;20217;-70
2022/07/26 16:46:05;;;;;;;0.98;0.80;;;;;;;;;;8421861;27;20217;-70
2022/07/26 16:50:05;;;;;;;0.87;0.70;;;;;;;;;;8422198;28;20041;-69
2022/07/26 16:54:06;;;;;;;1.13;0.70;;;;;;;;;;8421897;28;20116;-70
2022/07/26 16:58:06;;;;;;;1.08;0.57;;;;;;;;;;8422789;27;20012;-70
2022/07/26 17:02:07;;;;;;;1.88;0.70;;;;;;;;;;8421256;28;20063;-70
2022/07/26 17:06:08;;;;;;;0.65;0.63;;;;;;;;;;8422748;28;20100;-71
2022/07/26 17:10:08;;;;;;;1.30;0.85;;;;;;;;;;8422455;28;20024;-70
2022/07/26 17:14:09;;;;;;;0.70;0.68;;;;;;;;;;8423250;28;20030;-71
2022/07/26 17:18:09;;;;;;;0.90;0.70;;;;;;;;;;8421500;28;20061;-70
2022/07/26 17:22:09;;;;;;;3.07;0.70;;;;;;;;;;8423962;27;20070;-70
2022/07/26 17:26:09;;;;;;;3.38;0.70;;;;;;;;;;8422208;28;20796;-69
2022/07/26 17:30:10;;;;;;;4.23;0.87;;;;;;;;;;8423120;27;20162;-70
2022/07/26 17:34:10;;;;;;;2.60;0.80;;;;;;;;;;8422443;28;20092;-70
2022/07/26 17:38:10;;;;;;;2.67;0.90;;;;;;;;;;8423084;28;20024;-70
2022/07/26 17:42:11;;;;;;;4.73;0.90;;;;;;;;;;8397946;28;20016;-70
2022/07/26 17:46:11;;;;;;;3.50;1.00;;;;;;;;;;8421535;27;20655;-71
2022/07/26 17:50:11;;;;;;;2.97;1.00;;;;;;;;;;8402404;28;20134;-70
2022/07/26 17:54:11;;;;;;;2.53;0.90;;;;;;;;;;8422249;28;20019;-71
2022/07/26 17:58:12;;;;;;;1.92;1.00;;;;;;;;;;8421728;28;20023;-70
2022/07/26 18:02:12;;;;;;;1.98;1.20;;;;;;;;;;8420798;28;20078;-70
2022/07/26 18:06:12;;;;;;;4.00;1.50;;;;;;;;;;8422681;28;20051;-70
2022/07/26 18:10:13;;;;;;;5.07;1.40;;;;;;;;;;8419552;28;20550;-70
2022/07/26 18:14:13;;;;;;;1.52;1.13;;;;;;;;;;8420114;28;20101;-71
2022/07/26 18:18:14;;;;;;;2.42;1.30;;;;;;;;;;8402482;28;20541;-71
2022/07/26 18:22:14;;;;;;;2.08;1.40;;;;;;;;;;8420403;28;20046;-70
2022/07/26 18:26:15;;;;;;;2.38;1.50;;;;;;;;;;8420583;28;20447;-70
2022/07/26 18:30:15;;;;;;;5.15;1.23;;;;;;;;;;8420000;28;20027;-71
2022/07/26 18:34:15;;;;;;;1.95;1.52;;;;;;;;;;8420245;28;21100;-70
2022/07/26 18:38:15;;;;;;;2.90;1.60;;;;;;;;;;8422085;28;20024;-71
2022/07/26 18:42:16;;;;;;;2.15;1.40;;;;;;;;;;8418217;28;20015;-70
2022/07/26 18:46:16;;;;;;;2.45;1.50;;;;;;;;;;8384041;28;20036;-72
2022/07/26 18:50:17;;;;;;;1.98;1.30;;;;;;;;;;8419936;28;20026;-72
2022/07/26 18:54:17;;;;;;;3.25;1.40;;;;;;;;;;8417859;28;20026;-72
2022/07/26 18:58:17;;;;;;;2.15;1.33;;;;;;;;;;8420450;28;20781;-72
2022/07/26 19:02:17;;;;;;;3.17;1.40;;;;;;;;;;8419415;28;20161;-73
2022/07/26 19:06:18;;;;;;;3.75;1.42;;;;;;;;;;8419933;28;20308;-72
2022/07/26 19:10:19;;;;;;;3.97;1.70;;;;;;;;;;8419864;28;20418;-72
2022/07/26 19:14:19;;;;;;;2.63;1.67;;;;;;;;;;8418045;28;20069;-72
2022/07/26 19:18:19;;;;;;;4.40;1.60;;;;;;;;;;8417937;28;20031;-72
2022/07/26 19:22:20;;;;;;;2.00;1.58;;;;;;;;;;8406677;28;20015;-72
2022/07/26 19:26:22;;;;;;;6.43;1.58;;;;;;;;;;8406563;28;20693;-72
2022/07/26 19:30:23;;;;;;;2.57;1.20;;;;;;;;;;8423726;27;20097;-72
2022/07/26 19:34:25;;;;;;;4.75;1.40;;;;;;;;;;8425634;28;20605;-70
2022/07/26 19:38:25;;;;;;;2.63;1.30;;;;;;;;;;8423763;28;20106;-70
2022/07/26 19:42:27;;;;;;;3.60;1.60;;;;;;;;;;8425916;28;20791;-70
2022/07/26 19:46:27;;;;;;;3.00;1.40;;;;;;;;;;8424001;28;20801;-70
2022/07/26 19:50:27;;;;;;;2.85;1.30;;;;;;;;;;8423982;28;20020;-70
2022/07/26 19:54:28;;;;;;;6.30;1.30;;;;;;;;;;8425589;28;20039;-70
2022/07/26 19:58:28;;;;;;;2.43;1.27;;;;;;;;;;8425568;28;20031;-70
2022/07/26 20:02:28;;;;;;;2.80;1.48;;;;;;;;;;8404325;28;20981;-70
2022/07/26 20:06:28;;;;;;;2.63;1.40;;;;;;;;;;8401795;28;20015;-70
2022/07/26 20:10:29;;;;;;;1.60;1.50;;;;;;;;;;8423632;28;20028;-72
2022/07/26 20:14:29;;;;;;;3.20;1.40;;;;;;;;;;8426695;28;20038;-72
2022/07/26 20:18:29;;;;;;;1.60;1.20;;;;;;;;;;8423405;28;20782;-71
2022/07/26 20:22:30;;;;;;;1.83;1.38;;;;;;;;;;8426488;27;20031;-71
2022/07/26 20:26:30;;;;;;;3.60;1.42;;;;;;;;;;8425347;28;20024;-72
2022/07/26 20:30:30;;;;;;;3.28;1.20;;;;;;;;;;8423247;28;20035;-73
2022/07/26 20:34:30;;;;;;;1.70;1.02;;;;;;;;;;8422434;28;20130;-72
2022/07/26 20:38:31;;;;;;;3.40;1.30;;;;;;;;;;8426366;28;20020;-72
2022/07/26 20:42:31;;;;;;;1.97;1.33;;;;;;;;;;8423338;28;20065;-72
2022/07/26 20:46:31;;;;;;;3.03;1.43;;;;;;;;;;8424868;28;20079;-72
2022/07/26 20:50:31;;;;;;;1.50;1.10;;;;;;;;;;8420415;28;20023;-71
2022/07/26 20:54:32;;;;;;;5.40;1.48;;;;;;;;;;8424243;28;20016;-72
2022/07/26 20:58:32;;;;;;;1.70;1.10;;;;;;;;;;8424025;28;20031;-72
2022/07/26 21:02:32;;;;;;;1.33;1.20;;;;;;;;;;8421830;28;20040;-72
2022/07/26 21:06:32;;;;;;;2.88;1.38;;;;;;;;;;8427321;28;20352;-72
2022/07/26 21:10:33;;;;;;;2.45;1.50;;;;;;;;;;8427907;28;20039;-72
2022/07/26 21:14:33;;;;;;;3.83;1.30;;;;;;;;;;8427186;28;20051;-72
2022/07/26 21:18:33;;;;;;;2.10;1.20;;;;;;;;;;8424765;28;20032;-72
2022/07/26 21:22:34;;;;;;;2.63;1.10;;;;;;;;;;8425498;27;20022;-72
2022/07/26 21:26:34;;;;;;;1.67;1.40;;;;;;;;;;8427579;27;20020;-72
2022/07/26 21:30:34;;;;;;;3.03;1.27;;;;;;;;;;8425141;28;20036;-72
2022/07/26 21:34:34;;;;;;;2.60;1.10;;;;;;;;;;8424616;28;20032;-72
2022/07/26 21:38:34;;;;;;;3.30;1.07;;;;;;;;;;8426140;28;20081;-73
2022/07/26 21:42:35;;;;;;;1.20;1.10;;;;;;;;;;8425348;28;20024;-73
2022/07/26 21:46:35;;;;;;;1.03;1.00;;;;;;;;;;8425347;28;20091;-72
2022/07/26 21:50:35;;;;;;;3.90;1.30;;;;;;;;;;8423905;28;20316;-72
2022/07/26 21:54:36;;;;;;;1.30;1.20;;;;;;;;;;8425907;28;20035;-72
2022/07/26 21:58:36;;;;;;;1.80;1.30;;;;;;;;;;8425844;28;20356;-73
2022/07/26 22:02:36;;;;;;;1.73;1.20;;;;;;;;;;8423431;27;20118;-73
2022/07/26 22:06:36;;;;;;;1.52;1.02;;;;;;;;;;8425904;28;20273;-72
2022/07/26 22:10:38;;;;;;;2.80;1.30;;;;;;;;;;8424420;28;20039;-72
2022/07/26 22:14:38;;;;;;;4.18;1.10;;;;;;;;;;8423890;28;20500;-72
2022/07/26 22:18:38;;;;;;;2.27;1.20;;;;;;;;;;8423686;28;20932;-72
2022/07/26 22:22:38;;;;;;;0.98;0.98;;;;;;;;;;8422964;28;20400;-73
2022/07/26 22:26:40;;;;;;;1.00;1.00;;;;;;;;;;8425482;28;20817;-72
2022/07/26 22:30:41;;;;;;;1.52;1.13;;;;;;;;;;8421828;28;20059;-72
2022/07/26 22:34:41;;;;;;;1.95;1.17;;;;;;;;;;8424290;28;20019;-73
2022/07/26 22:38:41;;;;;;;1.65;1.30;;;;;;;;;;8424293;28;20540;-72
2022/07/26 22:42:43;;;;;;;1.55;1.30;;;;;;;;;;8424352;27;20043;-72
2022/07/26 22:46:43;;;;;;;4.82;1.10;;;;;;;;;;8422495;28;20036;-72
2022/07/26 22:50:43;;;;;;;1.42;1.00;;;;;;;;;;8423549;28;20008;-73
2022/07/26 22:54:44;;;;;;;1.63;1.10;;;;;;;;;;8423347;28;20111;-72
2022/07/26 22:58:45;;;;;;;1.45;1.10;;;;;;;;;;8422121;28;20833;-72
2022/07/26 23:02:45;;;;;;;4.22;1.00;;;;;;;;;;8422581;28;20044;-72
2022/07/26 23:06:45;;;;;;;1.33;1.10;;;;;;;;;;8424623;28;20134;-72
2022/07/26 23:10:46;;;;;;;3.08;1.30;;;;;;;;;;8424586;28;20072;-72
2022/07/26 23:14:46;;;;;;;1.47;1.20;;;;;;;;;;8424769;28;20039;-72
2022/07/26 23:18:46;;;;;;;2.70;1.30;;;;;;;;;;8422203;28;20909;-72
2022/07/26 23:22:46;;;;;;;0.98;0.98;;;;;;;;;;8425594;28;20878;-72
2022/07/26 23:26:46;;;;;;;1.25;1.10;;;;;;;;;;8423290;28;20026;-72
2022/07/26 23:30:47;;;;;;;2.00;1.00;;;;;;;;;;8423709;28;20043;-72
2022/07/26 23:34:47;;;;;;;1.33;1.00;;;;;;;;;;8424302;28;20024;-72
2022/07/26 23:38:47;;;;;;;1.33;1.00;;;;;;;;;;8424680;28;20380;-72
2022/07/26 23:42:47;;;;;;;4.55;0.90;;;;;;;;;;8420542;28;20061;-72
2022/07/26 23:46:47;;;;;;;2.72;1.20;;;;;;;;;;8423188;28;20036;-72
2022/07/26 23:50:47;;;;;;;1.95;1.00;;;;;;;;;;8422179;28;20476;-72
2022/07/26 23:54:48;;;;;;;2.35;1.30;;;;;;;;;;8424389;28;20030;-72
2022/07/26 23:58:48;;;;;;;1.55;1.00;;;;;;;;;;8404995;28;20030;-72
